sensor_id;sensor_type;location;lat;lon;timestamp;P1;durP1;ratioP1;P2;durP2;ratioP2
55813;SDS011;65494;42.818;0.404;2024-02-26T00:00:38;2.10;;;1.27;;
55813;SDS011;65494;42.818;0.404;2024-02-26T00:03:04;1.25;;;0.68;;
55813;SDS011;65494;42.818;0.404;2024-02-26T00:05:30;1.15;;;0.70;;
55813;SDS011;65494;42.818;0.404;2024-02-26T00:07:56;0.65;;;0.40;;
55813;SDS011;65494;42.818;0.404;2024-02-26T00:10:22;3.05;;;0.80;;
55813;SDS011;65494;42.818;0.404;2024-02-26T00:12:49;1.95;;;0.90;;
55813;SDS011;65494;42.818;0.404;2024-02-26T00:15:15;1.60;;;1.25;;
55813;SDS011;65494;42.818;0.404;2024-02-26T00:17:41;0.75;;;0.63;;
55813;SDS011;65494;42.818;0.404;2024-02-26T00:20:07;0.40;;;0.40;;
55813;SDS011;65494;42.818;0.404;2024-02-26T00:22:34;0.43;;;0.32;;
55813;SDS011;65494;42.818;0.404;2024-02-26T00:25:00;0.57;;;0.57;;
55813;SDS011;65494;42.818;0.404;2024-02-26T00:27:26;0.43;;;0.43;;
55813;SDS011;65494;42.818;0.404;2024-02-26T00:29:52;0.32;;;0.32;;
55813;SDS011;65494;42.818;0.404;2024-02-26T00:32:18;3.00;;;0.70;;
55813;SDS011;65494;42.818;0.404;2024-02-26T00:34:44;0.30;;;0.30;;
55813;SDS011;65494;42.818;0.404;2024-02-26T00:37:10;0.28;;;0.22;;
55813;SDS011;65494;42.818;0.404;2024-02-26T00:39:36;0.40;;;0.30;;
55813;SDS011;65494;42.818;0.404;2024-02-26T00:42:02;2.53;;;0.57;;
55813;SDS011;65494;42.818;0.404;2024-02-26T00:44:29;1.33;;;0.60;;
55813;SDS011;65494;42.818;0.404;2024-02-26T00:46:55;1.15;;;0.70;;
55813;SDS011;65494;42.818;0.404;2024-02-26T00:49:21;1.27;;;0.55;;
55813;SDS011;65494;42.818;0.404;2024-02-26T00:51:47;2.10;;;0.60;;
55813;SDS011;65494;42.818;0.404;2024-02-26T00:54:13;1.38;;;1.17;;
55813;SDS011;65494;42.818;0.404;2024-02-26T00:56:39;48.42;;;2.35;;
55813;SDS011;65494;42.818;0.404;2024-02-26T00:59:05;4.07;;;0.70;;
55813;SDS011;65494;42.818;0.404;2024-02-26T01:01:31;0.73;;;0.50;;
55813;SDS011;65494;42.818;0.404;2024-02-26T01:03:57;2.67;;;0.82;;
55813;SDS011;65494;42.818;0.404;2024-02-26T01:06:23;1.33;;;0.80;;
55813;SDS011;65494;42.818;0.404;2024-02-26T01:08:49;1.58;;;1.10;;
55813;SDS011;65494;42.818;0.404;2024-02-26T01:11:16;2.95;;;1.90;;
55813;SDS011;65494;42.818;0.404;2024-02-26T01:13:42;2.08;;;1.45;;
55813;SDS011;65494;42.818;0.404;2024-02-26T01:16:08;1.23;;;0.80;;
55813;SDS011;65494;42.818;0.404;2024-02-26T01:18:35;1.77;;;1.10;;
55813;SDS011;65494;42.818;0.404;2024-02-26T01:21:01;2.22;;;1.00;;
55813;SDS011;65494;42.818;0.404;2024-02-26T01:23:29;1.40;;;0.82;;
55813;SDS011;65494;42.818;0.404;2024-02-26T01:25:56;3.22;;;1.00;;
55813;SDS011;65494;42.818;0.404;2024-02-26T01:28:22;2.55;;;1.35;;
55813;SDS011;65494;42.818;0.404;2024-02-26T01:30:48;2.00;;;1.00;;
55813;SDS011;65494;42.818;0.404;2024-02-26T01:33:14;2.05;;;1.00;;
55813;SDS011;65494;42.818;0.404;2024-02-26T01:35:40;4.18;;;1.70;;
55813;SDS011;65494;42.818;0.404;2024-02-26T01:38:06;4.47;;;1.73;;
55813;SDS011;65494;42.818;0.404;2024-02-26T01:40:32;5.28;;;1.45;;
55813;SDS011;65494;42.818;0.404;2024-02-26T01:42:59;3.53;;;1.20;;
55813;SDS011;65494;42.818;0.404;2024-02-26T01:45:25;1.17;;;0.70;;
55813;SDS011;65494;42.818;0.404;2024-02-26T01:47:52;1.85;;;0.80;;
55813;SDS011;65494;42.818;0.404;2024-02-26T01:50:18;0.82;;;0.77;;
55813;SDS011;65494;42.818;0.404;2024-02-26T01:52:48;3.88;;;1.38;;
55813;SDS011;65494;42.818;0.404;2024-02-26T01:55:15;1.75;;;1.13;;
55813;SDS011;65494;42.818;0.404;2024-02-26T01:57:42;2.00;;;1.15;;
55813;SDS011;65494;42.818;0.404;2024-02-26T02:00:09;3.88;;;1.50;;
55813;SDS011;65494;42.818;0.404;2024-02-26T02:02:35;4.72;;;2.05;;
55813;SDS011;65494;42.818;0.404;2024-02-26T02:05:02;4.15;;;2.15;;
55813;SDS011;65494;42.818;0.404;2024-02-26T02:07:28;3.60;;;1.55;;
55813;SDS011;65494;42.818;0.404;2024-02-26T02:09:54;1.50;;;1.00;;
55813;SDS011;65494;42.818;0.404;2024-02-26T02:12:21;1.20;;;0.90;;
55813;SDS011;65494;42.818;0.404;2024-02-26T02:14:47;1.40;;;0.88;;
55813;SDS011;65494;42.818;0.404;2024-02-26T02:17:13;2.05;;;1.00;;
55813;SDS011;65494;42.818;0.404;2024-02-26T02:19:39;2.35;;;1.02;;
55813;SDS011;65494;42.818;0.404;2024-02-26T02:22:05;1.30;;;0.90;;
55813;SDS011;65494;42.818;0.404;2024-02-26T02:24:31;2.15;;;1.10;;
55813;SDS011;65494;42.818;0.404;2024-02-26T02:26:57;2.13;;;0.95;;
55813;SDS011;65494;42.818;0.404;2024-02-26T02:29:23;1.75;;;0.90;;
55813;SDS011;65494;42.818;0.404;2024-02-26T02:31:49;1.13;;;0.90;;
55813;SDS011;65494;42.818;0.404;2024-02-26T02:34:16;3.58;;;1.30;;
55813;SDS011;65494;42.818;0.404;2024-02-26T02:36:52;2.03;;;1.17;;
55813;SDS011;65494;42.818;0.404;2024-02-26T02:39:18;2.42;;;1.30;;
55813;SDS011;65494;42.818;0.404;2024-02-26T02:41:44;2.65;;;1.27;;
55813;SDS011;65494;42.818;0.404;2024-02-26T02:44:10;5.43;;;1.38;;
55813;SDS011;65494;42.818;0.404;2024-02-26T02:46:37;3.10;;;1.25;;
55813;SDS011;65494;42.818;0.404;2024-02-26T02:49:03;2.15;;;0.95;;
55813;SDS011;65494;42.818;0.404;2024-02-26T02:51:29;0.40;;;0.40;;
55813;SDS011;65494;42.818;0.404;2024-02-26T02:53:55;0.55;;;0.32;;
55813;SDS011;65494;42.818;0.404;2024-02-26T02:56:21;0.40;;;0.38;;
55813;SDS011;65494;42.818;0.404;2024-02-26T02:58:47;1.35;;;0.30;;
55813;SDS011;65494;42.818;0.404;2024-02-26T03:01:13;0.93;;;0.50;;
55813;SDS011;65494;42.818;0.404;2024-02-26T03:03:39;1.23;;;0.70;;
55813;SDS011;65494;42.818;0.404;2024-02-26T03:06:05;0.70;;;0.65;;
55813;SDS011;65494;42.818;0.404;2024-02-26T03:08:31;2.05;;;1.00;;
55813;SDS011;65494;42.818;0.404;2024-02-26T03:11:00;1.65;;;0.90;;
55813;SDS011;65494;42.818;0.404;2024-02-26T03:13:26;1.15;;;0.73;;
55813;SDS011;65494;42.818;0.404;2024-02-26T03:15:52;1.63;;;1.00;;
55813;SDS011;65494;42.818;0.404;2024-02-26T03:18:18;1.50;;;0.95;;
55813;SDS011;65494;42.818;0.404;2024-02-26T03:20:45;1.33;;;0.90;;
55813;SDS011;65494;42.818;0.404;2024-02-26T03:23:11;1.60;;;1.00;;
55813;SDS011;65494;42.818;0.404;2024-02-26T03:25:41;3.95;;;1.10;;
55813;SDS011;65494;42.818;0.404;2024-02-26T03:28:07;0.80;;;0.70;;
55813;SDS011;65494;42.818;0.404;2024-02-26T03:30:33;0.70;;;0.60;;
55813;SDS011;65494;42.818;0.404;2024-02-26T03:32:59;1.45;;;0.70;;
55813;SDS011;65494;42.818;0.404;2024-02-26T03:35:25;0.50;;;0.50;;
55813;SDS011;65494;42.818;0.404;2024-02-26T03:37:51;1.30;;;0.90;;
55813;SDS011;65494;42.818;0.404;2024-02-26T03:40:18;63.95;;;2.53;;
55813;SDS011;65494;42.818;0.404;2024-02-26T03:42:44;1.92;;;1.00;;
55813;SDS011;65494;42.818;0.404;2024-02-26T03:45:11;1.23;;;0.90;;
55813;SDS011;65494;42.818;0.404;2024-02-26T03:47:40;3.03;;;1.42;;
55813;SDS011;65494;42.818;0.404;2024-02-26T03:50:06;14.63;;;7.65;;
55813;SDS011;65494;42.818;0.404;2024-02-26T03:52:32;7.55;;;1.65;;
55813;SDS011;65494;42.818;0.404;2024-02-26T03:54:59;4.20;;;2.17;;
55813;SDS011;65494;42.818;0.404;2024-02-26T03:57:25;2.80;;;1.10;;
55813;SDS011;65494;42.818;0.404;2024-02-26T03:59:51;2.72;;;1.15;;
55813;SDS011;65494;42.818;0.404;2024-02-26T04:02:17;4.40;;;1.98;;
55813;SDS011;65494;42.818;0.404;2024-02-26T04:04:45;2.40;;;1.35;;
55813;SDS011;65494;42.818;0.404;2024-02-26T04:07:11;1.63;;;1.10;;
55813;SDS011;65494;42.818;0.404;2024-02-26T04:09:38;0.90;;;0.57;;
55813;SDS011;65494;42.818;0.404;2024-02-26T04:12:04;0.75;;;0.52;;
55813;SDS011;65494;42.818;0.404;2024-02-26T04:14:30;1.77;;;0.80;;
55813;SDS011;65494;42.818;0.404;2024-02-26T04:16:56;1.20;;;0.50;;
55813;SDS011;65494;42.818;0.404;2024-02-26T04:19:22;1.08;;;0.50;;
55813;SDS011;65494;42.818;0.404;2024-02-26T04:21:48;2.85;;;0.90;;
55813;SDS011;65494;42.818;0.404;2024-02-26T04:24:15;1.95;;;1.10;;
55813;SDS011;65494;42.818;0.404;2024-02-26T04:26:41;2.75;;;1.30;;
55813;SDS011;65494;42.818;0.404;2024-02-26T04:29:07;2.88;;;0.70;;
55813;SDS011;65494;42.818;0.404;2024-02-26T04:31:33;3.63;;;1.20;;
55813;SDS011;65494;42.818;0.404;2024-02-26T04:33:59;1.75;;;1.40;;
55813;SDS011;65494;42.818;0.404;2024-02-26T04:36:25;3.95;;;0.95;;
55813;SDS011;65494;42.818;0.404;2024-02-26T04:38:51;2.00;;;0.70;;
55813;SDS011;65494;42.818;0.404;2024-02-26T04:41:19;0.90;;;0.82;;
55813;SDS011;65494;42.818;0.404;2024-02-26T04:43:45;2.10;;;0.77;;
55813;SDS011;65494;42.818;0.404;2024-02-26T04:46:11;1.67;;;0.95;;
55813;SDS011;65494;42.818;0.404;2024-02-26T04:48:38;2.53;;;0.80;;
55813;SDS011;65494;42.818;0.404;2024-02-26T04:51:06;1.33;;;0.90;;
55813;SDS011;65494;42.818;0.404;2024-02-26T04:53:32;2.28;;;0.80;;
55813;SDS011;65494;42.818;0.404;2024-02-26T04:55:58;1.73;;;0.75;;
55813;SDS011;65494;42.818;0.404;2024-02-26T04:58:24;1.30;;;0.88;;
55813;SDS011;65494;42.818;0.404;2024-02-26T05:00:50;1.90;;;1.10;;
55813;SDS011;65494;42.818;0.404;2024-02-26T05:03:16;0.75;;;0.75;;
55813;SDS011;65494;42.818;0.404;2024-02-26T05:05:43;1.60;;;0.90;;
55813;SDS011;65494;42.818;0.404;2024-02-26T05:08:09;1.20;;;0.82;;
55813;SDS011;65494;42.818;0.404;2024-02-26T05:10:35;1.65;;;0.98;;
55813;SDS011;65494;42.818;0.404;2024-02-26T05:13:04;3.33;;;0.70;;
55813;SDS011;65494;42.818;0.404;2024-02-26T05:15:30;0.93;;;0.60;;
55813;SDS011;65494;42.818;0.404;2024-02-26T05:17:57;0.40;;;0.40;;
55813;SDS011;65494;42.818;0.404;2024-02-26T05:20:24;2.03;;;0.57;;
55813;SDS011;65494;42.818;0.404;2024-02-26T05:22:50;0.50;;;0.50;;
55813;SDS011;65494;42.818;0.404;2024-02-26T05:25:16;1.45;;;0.90;;
55813;SDS011;65494;42.818;0.404;2024-02-26T05:27:43;1.25;;;0.85;;
55813;SDS011;65494;42.818;0.404;2024-02-26T05:30:09;1.42;;;0.80;;
55813;SDS011;65494;42.818;0.404;2024-02-26T05:32:35;1.25;;;0.98;;
55813;SDS011;65494;42.818;0.404;2024-02-26T05:35:02;1.92;;;1.20;;
55813;SDS011;65494;42.818;0.404;2024-02-26T05:37:28;1.00;;;0.85;;
55813;SDS011;65494;42.818;0.404;2024-02-26T05:39:55;2.00;;;1.13;;
55813;SDS011;65494;42.818;0.404;2024-02-26T05:42:21;1.95;;;1.00;;
55813;SDS011;65494;42.818;0.404;2024-02-26T05:44:47;0.88;;;0.80;;
55813;SDS011;65494;42.818;0.404;2024-02-26T05:47:13;3.20;;;1.40;;
55813;SDS011;65494;42.818;0.404;2024-02-26T05:49:39;4.18;;;1.83;;
55813;SDS011;65494;42.818;0.404;2024-02-26T05:52:05;3.78;;;2.00;;
55813;SDS011;65494;42.818;0.404;2024-02-26T05:54:32;1.27;;;0.90;;
55813;SDS011;65494;42.818;0.404;2024-02-26T05:56:58;2.33;;;1.00;;
55813;SDS011;65494;42.818;0.404;2024-02-26T05:59:24;2.70;;;0.73;;
55813;SDS011;65494;42.818;0.404;2024-02-26T06:01:50;1.80;;;1.20;;
55813;SDS011;65494;42.818;0.404;2024-02-26T06:04:16;7.50;;;3.60;;
55813;SDS011;65494;42.818;0.404;2024-02-26T06:06:43;8.85;;;3.72;;
55813;SDS011;65494;42.818;0.404;2024-02-26T06:09:10;3.75;;;1.90;;
55813;SDS011;65494;42.818;0.404;2024-02-26T06:11:37;1.90;;;1.25;;
55813;SDS011;65494;42.818;0.404;2024-02-26T06:14:03;2.70;;;1.73;;
55813;SDS011;65494;42.818;0.404;2024-02-26T06:16:29;2.03;;;1.10;;
55813;SDS011;65494;42.818;0.404;2024-02-26T06:18:55;6.20;;;2.60;;
55813;SDS011;65494;42.818;0.404;2024-02-26T06:21:22;9.05;;;3.38;;
55813;SDS011;65494;42.818;0.404;2024-02-26T06:23:48;3.53;;;1.85;;
55813;SDS011;65494;42.818;0.404;2024-02-26T06:26:15;1.70;;;0.98;;
55813;SDS011;65494;42.818;0.404;2024-02-26T06:28:41;3.80;;;1.75;;
55813;SDS011;65494;42.818;0.404;2024-02-26T06:31:07;2.75;;;1.30;;
55813;SDS011;65494;42.818;0.404;2024-02-26T06:33:33;2.55;;;0.82;;
55813;SDS011;65494;42.818;0.404;2024-02-26T06:36:00;7.70;;;3.47;;
55813;SDS011;65494;42.818;0.404;2024-02-26T06:38:26;3.80;;;2.00;;
55813;SDS011;65494;42.818;0.404;2024-02-26T06:40:52;3.90;;;1.50;;
55813;SDS011;65494;42.818;0.404;2024-02-26T06:43:18;2.58;;;1.45;;
55813;SDS011;65494;42.818;0.404;2024-02-26T06:45:44;2.10;;;1.45;;
55813;SDS011;65494;42.818;0.404;2024-02-26T06:48:10;1.83;;;1.20;;
55813;SDS011;65494;42.818;0.404;2024-02-26T06:50:37;1.00;;;0.80;;
55813;SDS011;65494;42.818;0.404;2024-02-26T06:53:03;3.97;;;1.55;;
55813;SDS011;65494;42.818;0.404;2024-02-26T06:55:29;3.72;;;1.98;;
55813;SDS011;65494;42.818;0.404;2024-02-26T06:57:55;5.50;;;1.48;;
55813;SDS011;65494;42.818;0.404;2024-02-26T07:00:24;2.05;;;1.52;;
55813;SDS011;65494;42.818;0.404;2024-02-26T07:02:50;1.70;;;1.05;;
55813;SDS011;65494;42.818;0.404;2024-02-26T07:05:16;2.75;;;1.50;;
55813;SDS011;65494;42.818;0.404;2024-02-26T07:07:42;3.85;;;1.25;;
55813;SDS011;65494;42.818;0.404;2024-02-26T07:10:18;4.68;;;1.50;;
55813;SDS011;65494;42.818;0.404;2024-02-26T07:12:44;6.05;;;1.80;;
55813;SDS011;65494;42.818;0.404;2024-02-26T07:15:10;4.68;;;1.98;;
55813;SDS011;65494;42.818;0.404;2024-02-26T07:17:36;5.65;;;2.00;;
55813;SDS011;65494;42.818;0.404;2024-02-26T07:20:08;7.35;;;2.97;;
55813;SDS011;65494;42.818;0.404;2024-02-26T07:22:36;3.85;;;2.05;;
55813;SDS011;65494;42.818;0.404;2024-02-26T07:25:02;22.95;;;9.57;;
55813;SDS011;65494;42.818;0.404;2024-02-26T07:27:28;16.40;;;5.55;;
55813;SDS011;65494;42.818;0.404;2024-02-26T07:29:54;8.27;;;3.83;;
55813;SDS011;65494;42.818;0.404;2024-02-26T07:32:20;6.72;;;3.13;;
55813;SDS011;65494;42.818;0.404;2024-02-26T07:34:50;5.15;;;2.25;;
55813;SDS011;65494;42.818;0.404;2024-02-26T07:37:16;2.83;;;1.77;;
55813;SDS011;65494;42.818;0.404;2024-02-26T07:39:42;5.25;;;1.60;;
55813;SDS011;65494;42.818;0.404;2024-02-26T07:42:09;3.30;;;1.70;;
55813;SDS011;65494;42.818;0.404;2024-02-26T07:44:38;4.85;;;1.95;;
55813;SDS011;65494;42.818;0.404;2024-02-26T07:47:12;4.38;;;2.30;;
55813;SDS011;65494;42.818;0.404;2024-02-26T07:49:38;3.95;;;2.05;;
55813;SDS011;65494;42.818;0.404;2024-02-26T07:52:07;3.50;;;1.75;;
55813;SDS011;65494;42.818;0.404;2024-02-26T07:54:33;2.65;;;1.40;;
55813;SDS011;65494;42.818;0.404;2024-02-26T07:57:00;2.58;;;1.45;;
55813;SDS011;65494;42.818;0.404;2024-02-26T07:59:29;2.70;;;1.67;;
55813;SDS011;65494;42.818;0.404;2024-02-26T08:01:55;2.47;;;1.42;;
55813;SDS011;65494;42.818;0.404;2024-02-26T08:04:21;2.45;;;1.40;;
55813;SDS011;65494;42.818;0.404;2024-02-26T08:06:49;2.22;;;1.42;;
55813;SDS011;65494;42.818;0.404;2024-02-26T08:09:15;1.73;;;1.30;;
55813;SDS011;65494;42.818;0.404;2024-02-26T08:11:41;1.50;;;1.15;;
55813;SDS011;65494;42.818;0.404;2024-02-26T08:14:07;2.22;;;0.93;;
55813;SDS011;65494;42.818;0.404;2024-02-26T08:16:34;1.95;;;1.02;;
55813;SDS011;65494;42.818;0.404;2024-02-26T08:19:00;2.45;;;1.20;;
55813;SDS011;65494;42.818;0.404;2024-02-26T08:21:26;1.30;;;1.00;;
55813;SDS011;65494;42.818;0.404;2024-02-26T08:23:52;3.28;;;1.67;;
55813;SDS011;65494;42.818;0.404;2024-02-26T08:26:18;4.22;;;1.30;;
55813;SDS011;65494;42.818;0.404;2024-02-26T08:28:45;3.03;;;1.00;;
55813;SDS011;65494;42.818;0.404;2024-02-26T08:31:12;1.85;;;0.80;;
55813;SDS011;65494;42.818;0.404;2024-02-26T08:33:39;1.48;;;0.88;;
55813;SDS011;65494;42.818;0.404;2024-02-26T08:36:05;0.70;;;0.60;;
55813;SDS011;65494;42.818;0.404;2024-02-26T08:38:31;1.67;;;0.47;;
55813;SDS011;65494;42.818;0.404;2024-02-26T08:40:59;1.02;;;0.30;;
55813;SDS011;65494;42.818;0.404;2024-02-26T08:43:25;0.22;;;0.22;;
55813;SDS011;65494;42.818;0.404;2024-02-26T08:45:52;0.88;;;0.77;;
55813;SDS011;65494;42.818;0.404;2024-02-26T08:48:18;0.30;;;0.30;;
55813;SDS011;65494;42.818;0.404;2024-02-26T08:50:44;0.85;;;0.20;;
55813;SDS011;65494;42.818;0.404;2024-02-26T08:53:10;0.30;;;0.30;;
55813;SDS011;65494;42.818;0.404;2024-02-26T08:55:36;0.77;;;0.50;;
55813;SDS011;65494;42.818;0.404;2024-02-26T08:58:02;1.63;;;0.90;;
55813;SDS011;65494;42.818;0.404;2024-02-26T09:00:29;2.55;;;0.50;;
55813;SDS011;65494;42.818;0.404;2024-02-26T09:02:56;0.40;;;0.30;;
55813;SDS011;65494;42.818;0.404;2024-02-26T09:05:22;0.60;;;0.57;;
55813;SDS011;65494;42.818;0.404;2024-02-26T09:07:48;0.73;;;0.40;;
55813;SDS011;65494;42.818;0.404;2024-02-26T09:10:14;0.47;;;0.32;;
55813;SDS011;65494;42.818;0.404;2024-02-26T09:12:40;2.28;;;0.60;;
55813;SDS011;65494;42.818;0.404;2024-02-26T09:15:06;1.52;;;0.80;;
55813;SDS011;65494;42.818;0.404;2024-02-26T09:17:33;0.75;;;0.60;;
55813;SDS011;65494;42.818;0.404;2024-02-26T09:19:59;1.45;;;0.70;;
55813;SDS011;65494;42.818;0.404;2024-02-26T09:22:25;1.33;;;0.63;;
55813;SDS011;65494;42.818;0.404;2024-02-26T09:24:51;1.50;;;0.80;;
55813;SDS011;65494;42.818;0.404;2024-02-26T09:27:18;0.50;;;0.50;;
55813;SDS011;65494;42.818;0.404;2024-02-26T09:29:44;0.68;;;0.50;;
55813;SDS011;65494;42.818;0.404;2024-02-26T09:32:11;0.22;;;0.22;;
55813;SDS011;65494;42.818;0.404;2024-02-26T09:34:39;0.95;;;0.20;;
55813;SDS011;65494;42.818;0.404;2024-02-26T09:37:05;1.40;;;0.30;;
55813;SDS011;65494;42.818;0.404;2024-02-26T09:39:31;0.10;;;0.10;;
55813;SDS011;65494;42.818;0.404;2024-02-26T09:41:57;0.25;;;0.17;;
55813;SDS011;65494;42.818;0.404;2024-02-26T09:44:24;0.30;;;0.30;;
55813;SDS011;65494;42.818;0.404;2024-02-26T09:46:50;0.22;;;0.20;;
55813;SDS011;65494;42.818;0.404;2024-02-26T09:49:19;0.43;;;0.20;;
55813;SDS011;65494;42.818;0.404;2024-02-26T09:51:46;0.17;;;0.17;;
55813;SDS011;65494;42.818;0.404;2024-02-26T09:54:13;0.30;;;0.10;;
55813;SDS011;65494;42.818;0.404;2024-02-26T09:56:41;0.95;;;0.20;;
55813;SDS011;65494;42.818;0.404;2024-02-26T09:59:10;0.52;;;0.20;;
55813;SDS011;65494;42.818;0.404;2024-02-26T10:01:37;0.40;;;0.28;;
55813;SDS011;65494;42.818;0.404;2024-02-26T10:04:04;0.65;;;0.28;;
55813;SDS011;65494;42.818;0.404;2024-02-26T10:06:30;0.50;;;0.28;;
55813;SDS011;65494;42.818;0.404;2024-02-26T10:08:57;0.52;;;0.20;;
55813;SDS011;65494;42.818;0.404;2024-02-26T10:11:26;0.98;;;0.20;;
55813;SDS011;65494;42.818;0.404;2024-02-26T10:13:52;0.28;;;0.20;;
55813;SDS011;65494;42.818;0.404;2024-02-26T10:16:18;2.08;;;0.38;;
55813;SDS011;65494;42.818;0.404;2024-02-26T10:18:48;0.82;;;0.30;;
55813;SDS011;65494;42.818;0.404;2024-02-26T10:21:15;2.15;;;0.30;;
55813;SDS011;65494;42.818;0.404;2024-02-26T10:23:43;0.68;;;0.20;;
55813;SDS011;65494;42.818;0.404;2024-02-26T10:26:10;5.32;;;0.40;;
55813;SDS011;65494;42.818;0.404;2024-02-26T10:28:37;0.75;;;0.13;;
55813;SDS011;65494;42.818;0.404;2024-02-26T10:31:03;13.38;;;1.95;;
55813;SDS011;65494;42.818;0.404;2024-02-26T10:33:29;4.78;;;0.32;;
55813;SDS011;65494;42.818;0.404;2024-02-26T10:35:56;6.78;;;0.40;;
55813;SDS011;65494;42.818;0.404;2024-02-26T10:38:22;0.17;;;0.10;;
55813;SDS011;65494;42.818;0.404;2024-02-26T10:40:49;0.15;;;0.15;;
55813;SDS011;65494;42.818;0.404;2024-02-26T10:43:15;0.25;;;0.10;;
55813;SDS011;65494;42.818;0.404;2024-02-26T10:45:42;0.08;;;0.08;;
55813;SDS011;65494;42.818;0.404;2024-02-26T10:48:09;0.25;;;0.10;;
55813;SDS011;65494;42.818;0.404;2024-02-26T10:50:36;0.90;;;0.10;;
55813;SDS011;65494;42.818;0.404;2024-02-26T10:53:02;0.35;;;0.10;;
55813;SDS011;65494;42.818;0.404;2024-02-26T10:55:29;0.10;;;0.10;;
55813;SDS011;65494;42.818;0.404;2024-02-26T10:57:58;0.43;;;0.20;;
55813;SDS011;65494;42.818;0.404;2024-02-26T11:00:24;0.15;;;0.10;;
55813;SDS011;65494;42.818;0.404;2024-02-26T11:02:51;2.55;;;0.20;;
55813;SDS011;65494;42.818;0.404;2024-02-26T11:05:17;0.28;;;0.03;;
55813;SDS011;65494;42.818;0.404;2024-02-26T11:07:43;1.65;;;0.20;;
55813;SDS011;65494;42.818;0.404;2024-02-26T11:10:12;0.10;;;0.00;;
55813;SDS011;65494;42.818;0.404;2024-02-26T11:12:39;0.85;;;0.10;;
55813;SDS011;65494;42.818;0.404;2024-02-26T11:15:05;0.10;;;0.10;;
55813;SDS011;65494;42.818;0.404;2024-02-26T11:17:31;0.00;;;0.00;;
55813;SDS011;65494;42.818;0.404;2024-02-26T11:19:59;0.10;;;0.10;;
55813;SDS011;65494;42.818;0.404;2024-02-26T11:22:27;0.20;;;0.10;;
55813;SDS011;65494;42.818;0.404;2024-02-26T11:24:54;0.30;;;0.17;;
55813;SDS011;65494;42.818;0.404;2024-02-26T11:27:30;3.63;;;0.30;;
55813;SDS011;65494;42.818;0.404;2024-02-26T11:29:57;0.30;;;0.20;;
55813;SDS011;65494;42.818;0.404;2024-02-26T11:32:25;1.05;;;0.17;;
55813;SDS011;65494;42.818;0.404;2024-02-26T11:34:52;0.55;;;0.17;;
55813;SDS011;65494;42.818;0.404;2024-02-26T11:37:19;0.80;;;0.20;;
55813;SDS011;65494;42.818;0.404;2024-02-26T11:39:45;0.63;;;0.10;;
55813;SDS011;65494;42.818;0.404;2024-02-26T11:42:15;0.05;;;0.05;;
55813;SDS011;65494;42.818;0.404;2024-02-26T11:44:41;0.28;;;0.10;;
55813;SDS011;65494;42.818;0.404;2024-02-26T11:47:11;0.22;;;0.20;;
55813;SDS011;65494;42.818;0.404;2024-02-26T11:49:38;1.10;;;0.22;;
55813;SDS011;65494;42.818;0.404;2024-02-26T11:52:08;1.48;;;0.50;;
55813;SDS011;65494;42.818;0.404;2024-02-26T11:54:44;0.20;;;0.20;;
55813;SDS011;65494;42.818;0.404;2024-02-26T11:57:30;0.10;;;0.10;;
55813;SDS011;65494;42.818;0.404;2024-02-26T12:02:40;0.32;;;0.10;;
55813;SDS011;65494;42.818;0.404;2024-02-26T12:05:14;0.52;;;0.35;;
55813;SDS011;65494;42.818;0.404;2024-02-26T12:07:45;0.45;;;0.25;;
55813;SDS011;65494;42.818;0.404;2024-02-26T12:10:14;0.73;;;0.30;;
55813;SDS011;65494;42.818;0.404;2024-02-26T12:12:41;1.13;;;0.30;;
55813;SDS011;65494;42.818;0.404;2024-02-26T12:15:07;0.95;;;0.20;;
55813;SDS011;65494;42.818;0.404;2024-02-26T12:17:36;0.70;;;0.25;;
55813;SDS011;65494;42.818;0.404;2024-02-26T12:20:11;0.30;;;0.20;;
55813;SDS011;65494;42.818;0.404;2024-02-26T12:22:39;1.02;;;0.47;;
55813;SDS011;65494;42.818;0.404;2024-02-26T12:25:06;0.32;;;0.28;;
55813;SDS011;65494;42.818;0.404;2024-02-26T12:27:32;1.48;;;0.47;;
55813;SDS011;65494;42.818;0.404;2024-02-26T12:29:58;1.40;;;0.20;;
55813;SDS011;65494;42.818;0.404;2024-02-26T12:32:24;0.28;;;0.20;;
55813;SDS011;65494;42.818;0.404;2024-02-26T12:34:51;1.55;;;0.20;;
55813;SDS011;65494;42.818;0.404;2024-02-26T12:37:17;0.28;;;0.10;;
55813;SDS011;65494;42.818;0.404;2024-02-26T12:39:43;1.67;;;0.30;;
55813;SDS011;65494;42.818;0.404;2024-02-26T12:42:11;0.20;;;0.20;;
55813;SDS011;65494;42.818;0.404;2024-02-26T12:44:37;1.13;;;0.20;;
55813;SDS011;65494;42.818;0.404;2024-02-26T12:47:04;1.35;;;0.20;;
55813;SDS011;65494;42.818;0.404;2024-02-26T12:49:30;0.20;;;0.20;;
55813;SDS011;65494;42.818;0.404;2024-02-26T12:51:56;1.88;;;0.28;;
55813;SDS011;65494;42.818;0.404;2024-02-26T12:54:30;0.25;;;0.25;;
55813;SDS011;65494;42.818;0.404;2024-02-26T12:56:57;0.85;;;0.30;;
55813;SDS011;65494;42.818;0.404;2024-02-26T12:59:23;4.00;;;0.73;;
55813;SDS011;65494;42.818;0.404;2024-02-26T13:01:49;3.05;;;0.40;;
55813;SDS011;65494;42.818;0.404;2024-02-26T13:04:16;2.00;;;0.70;;
55813;SDS011;65494;42.818;0.404;2024-02-26T13:06:42;2.85;;;0.28;;
55813;SDS011;65494;42.818;0.404;2024-02-26T13:09:12;1.75;;;0.40;;
55813;SDS011;65494;42.818;0.404;2024-02-26T13:11:39;1.00;;;0.43;;
55813;SDS011;65494;42.818;0.404;2024-02-26T13:14:05;0.30;;;0.20;;
55813;SDS011;65494;42.818;0.404;2024-02-26T13:16:31;0.75;;;0.20;;
55813;SDS011;65494;42.818;0.404;2024-02-26T13:19:08;0.55;;;0.20;;
55813;SDS011;65494;42.818;0.404;2024-02-26T13:21:34;1.10;;;0.65;;
55813;SDS011;65494;42.818;0.404;2024-02-26T13:24:00;1.08;;;0.40;;
55813;SDS011;65494;42.818;0.404;2024-02-26T13:26:26;0.95;;;0.50;;
55813;SDS011;65494;42.818;0.404;2024-02-26T13:28:59;0.73;;;0.40;;
55813;SDS011;65494;42.818;0.404;2024-02-26T13:31:25;1.23;;;0.50;;
55813;SDS011;65494;42.818;0.404;2024-02-26T13:33:51;0.88;;;0.40;;
55813;SDS011;65494;42.818;0.404;2024-02-26T13:36:21;0.73;;;0.30;;
55813;SDS011;65494;42.818;0.404;2024-02-26T13:38:53;0.43;;;0.20;;
55813;SDS011;65494;42.818;0.404;2024-02-26T13:41:20;1.67;;;0.60;;
55813;SDS011;65494;42.818;0.404;2024-02-26T13:43:46;0.77;;;0.40;;
55813;SDS011;65494;42.818;0.404;2024-02-26T13:46:12;4.85;;;0.50;;
55813;SDS011;65494;42.818;0.404;2024-02-26T13:48:40;0.85;;;0.40;;
55813;SDS011;65494;42.818;0.404;2024-02-26T13:51:06;1.17;;;0.38;;
55813;SDS011;65494;42.818;0.404;2024-02-26T13:53:32;2.20;;;1.00;;
55813;SDS011;65494;42.818;0.404;2024-02-26T13:55:58;1.58;;;0.40;;
55813;SDS011;65494;42.818;0.404;2024-02-26T13:58:26;0.57;;;0.30;;
55813;SDS011;65494;42.818;0.404;2024-02-26T14:00:53;2.92;;;0.40;;
55813;SDS011;65494;42.818;0.404;2024-02-26T14:03:22;3.35;;;0.30;;
55813;SDS011;65494;42.818;0.404;2024-02-26T14:05:48;1.30;;;0.30;;
55813;SDS011;65494;42.818;0.404;2024-02-26T14:08:14;0.73;;;0.20;;
55813;SDS011;65494;42.818;0.404;2024-02-26T14:10:40;1.77;;;0.30;;
55813;SDS011;65494;42.818;0.404;2024-02-26T14:13:07;3.13;;;0.40;;
55813;SDS011;65494;42.818;0.404;2024-02-26T14:15:33;0.30;;;0.25;;
55813;SDS011;65494;42.818;0.404;2024-02-26T14:18:00;0.68;;;0.38;;
55813;SDS011;65494;42.818;0.404;2024-02-26T14:20:29;0.52;;;0.30;;
55813;SDS011;65494;42.818;0.404;2024-02-26T14:22:55;0.28;;;0.20;;
55813;SDS011;65494;42.818;0.404;2024-02-26T14:25:21;1.60;;;0.30;;
55813;SDS011;65494;42.818;0.404;2024-02-26T14:27:47;0.88;;;0.40;;
55813;SDS011;65494;42.818;0.404;2024-02-26T14:30:14;0.82;;;0.50;;
55813;SDS011;65494;42.818;0.404;2024-02-26T14:32:40;2.97;;;1.17;;
55813;SDS011;65494;42.818;0.404;2024-02-26T14:35:06;7.00;;;1.27;;
55813;SDS011;65494;42.818;0.404;2024-02-26T14:37:34;9.77;;;1.48;;
55813;SDS011;65494;42.818;0.404;2024-02-26T14:40:00;2.90;;;0.85;;
55813;SDS011;65494;42.818;0.404;2024-02-26T14:42:27;0.88;;;0.40;;
55813;SDS011;65494;42.818;0.404;2024-02-26T14:44:53;0.20;;;0.20;;
55813;SDS011;65494;42.818;0.404;2024-02-26T14:47:19;2.50;;;0.70;;